Pagina principală
METAR-TAF:

METAR-TAF

Aeroporturi :

Pacific Missile Test Facility Barking Sands

Kekaha, Hawaii, Statele Unite ale Americii

Latitudine: 22-02-11N, longitudine: 159-47-11W, elevație: 4 m

Observații meteo curente

Raportul a fost făcut în urmă cu 35 de minute, la 07:51 UTC
Vânt calm
Temperatură 22°C
Umiditate 73%
Presiune 1020 hPa
Vizibilitate: 16.1 km
Cer senin

METAR: PHBK 240751Z AUTO 00000KT 10SM CLR 22/17 A3013 RMK AO2 SLP203 T02220172 $

Ora: 22:26 (08:26 UTC)


TAF: lipsă

Observații și prognoze meteo pentru peste 4.000 de aeroporturi (rapoarte METAR și TAF).

Stațiile disponibile sunt reprezentate pe hartă prin puncte galbene și roșii.

Țineți indicatorul mouse-ului pe punctul dorit pentru a vedea denumirea stației.

Apoi, faceți clic pentru a vedea observațiile și prognozele meteorologice.

Pentru a schimba harta: Pentru mărire, faceți clic pe butoanele verzi cu cruce neagră; pentru micșorare, pe butonul verde cu o liniuță; pentru hărți învecinate, pe săgețile verzi.


METAR-TAF: